createdAt,value
2022-11-16T00:02:16.639Z,2.88
2022-11-16T00:04:45.995Z,2.80
2022-11-16T00:07:12.673Z,2.33
2022-11-16T00:09:40.745Z,2.30
2022-11-16T00:12:09.597Z,2.22
2022-11-16T00:14:36.451Z,2.25
2022-11-16T00:17:04.594Z,2.08
2022-11-16T00:19:31.224Z,2.17
2022-11-16T00:21:57.842Z,2.42
2022-11-16T00:24:24.538Z,2.08
2022-11-16T00:26:54.084Z,2.20
2022-11-16T00:29:23.458Z,1.75
2022-11-16T00:31:50.385Z,2.58
2022-11-16T00:34:17.512Z,2.53
2022-11-16T00:36:44.231Z,2.20
2022-11-16T00:39:12.549Z,2.67
2022-11-16T00:41:39.362Z,2.20
2022-11-16T00:44:06.168Z,2.50
2022-11-16T00:46:32.802Z,2.35
2022-11-16T00:48:59.406Z,2.33
2022-11-16T00:51:28.770Z,2.15
2022-11-16T00:53:55.359Z,2.20
2022-11-16T00:56:23.014Z,2.20
2022-11-16T00:58:50.027Z,2.22
2022-11-16T01:01:18.085Z,2.05
2022-11-16T01:03:45.945Z,1.77
2022-11-16T01:06:14.425Z,2.15
2022-11-16T01:08:42.584Z,2.33
2022-11-16T01:11:28.996Z,2.47
2022-11-16T01:13:58.416Z,1.92
2022-11-16T01:16:25.005Z,2.40
2022-11-16T01:18:53.183Z,2.38
2022-11-16T01:21:20.429Z,2.03
2022-11-16T01:23:47.045Z,2.45
2022-11-16T01:26:13.836Z,1.88
2022-11-16T01:28:42.055Z,2.08
2022-11-16T01:31:10.587Z,1.77
2022-11-16T01:33:38.422Z,2.20
2022-11-16T01:36:15.176Z,2.50
2022-11-16T01:38:45.552Z,2.13
2022-11-16T01:41:18.285Z,2.33
2022-11-16T01:43:59.339Z,2.47
2022-11-16T01:46:31.943Z,3.03
2022-11-16T01:49:06.892Z,2.60
2022-11-16T01:51:35.192Z,2.20
2022-11-16T01:54:06.644Z,2.20
2022-11-16T01:56:36.950Z,2.42
2022-11-16T01:59:22.733Z,2.22
2022-11-16T02:01:52.417Z,1.80
2022-11-16T02:04:20.729Z,1.80
2022-11-16T02:07:01.624Z,2.00
2022-11-16T02:09:55.927Z,2.00
2022-11-16T02:12:58.329Z,2.00
2022-11-16T02:15:36.625Z,2.00
2022-11-16T02:18:14.916Z,2.03
2022-11-16T02:21:23.723Z,2.15
2022-11-16T02:24:14.784Z,2.17
2022-11-16T02:27:16.560Z,2.22
2022-11-16T02:29:48.632Z,2.30
2022-11-16T02:32:23.060Z,2.20
2022-11-16T02:34:54.932Z,2.75
2022-11-16T02:37:26.275Z,2.42
2022-11-16T02:39:57.925Z,2.85
2022-11-16T02:45:05.899Z,2.40
2022-11-16T02:47:35.266Z,2.15
2022-11-16T02:50:17.989Z,3.00
2022-11-16T02:52:44.612Z,2.53
2022-11-16T02:55:12.132Z,2.75
2022-11-16T02:57:50.333Z,2.65
2022-11-16T03:00:21.566Z,2.83
2022-11-16T03:03:08.806Z,2.70
2022-11-16T03:05:44.711Z,2.78
2022-11-16T03:08:14.747Z,2.90
2022-11-16T03:11:03.201Z,2.60
2022-11-16T03:13:34.963Z,2.72
2022-11-16T03:16:09.778Z,2.88
2022-11-16T03:18:39.521Z,2.97
2022-11-16T03:21:15.749Z,2.47
2022-11-16T03:23:45.663Z,2.75
2022-11-16T03:26:16.994Z,2.90
2022-11-16T03:28:55.922Z,3.15
2022-11-16T03:31:34.291Z,1.95
2022-11-16T03:34:06.223Z,2.83
2022-11-16T03:39:08.200Z,2.45
2022-11-16T03:41:37.308Z,2.70
2022-11-16T03:44:04.922Z,2.90
2022-11-16T03:46:31.717Z,2.90
2022-11-16T03:49:00.714Z,3.03
2022-11-16T03:51:31.422Z,2.88
2022-11-16T03:53:58.190Z,2.80
2022-11-16T03:56:25.223Z,2.65
2022-11-16T03:58:51.876Z,2.85
2022-11-16T04:01:18.564Z,2.58
2022-11-16T04:03:46.831Z,2.60
2022-11-16T04:06:32.615Z,2.70
2022-11-16T04:09:17.736Z,2.55
2022-11-16T04:12:02.973Z,2.20
2022-11-16T04:14:48.222Z,2.22
2022-11-16T04:17:37.811Z,2.60
2022-11-16T04:20:24.258Z,2.75
2022-11-16T04:23:24.030Z,3.10
2022-11-16T04:25:52.381Z,2.45
2022-11-16T04:28:24.013Z,2.60
2022-11-16T04:31:16.085Z,2.70
2022-11-16T04:34:09.333Z,2.40
2022-11-16T04:36:55.239Z,2.53
2022-11-16T04:39:21.913Z,2.63
2022-11-16T04:42:07.192Z,2.28
2022-11-16T04:44:54.141Z,2.63
2022-11-16T04:47:22.699Z,3.28
2022-11-16T04:49:49.277Z,2.85
2022-11-16T04:52:16.028Z,3.30
2022-11-16T04:54:43.386Z,2.67
2022-11-16T04:57:10.237Z,2.65
2022-11-16T04:59:37.029Z,2.50
2022-11-16T05:02:09.766Z,2.65
2022-11-16T05:04:44.406Z,1.98
2022-11-16T05:07:14.156Z,2.20
2022-11-16T05:09:44.724Z,2.35
2022-11-16T05:12:15.189Z,2.03
2022-11-16T05:14:43.530Z,2.00
2022-11-16T05:17:11.447Z,2.75
2022-11-16T05:19:56.763Z,2.20
2022-11-16T05:22:25.682Z,2.20
2022-11-16T05:24:54.337Z,2.38
2022-11-16T05:27:23.023Z,1.77
2022-11-16T05:29:50.608Z,2.25
2022-11-16T05:32:21.554Z,1.98
2022-11-16T05:34:48.948Z,2.25
2022-11-16T05:37:17.446Z,2.20
2022-11-16T05:39:45.291Z,2.42
2022-11-16T05:42:12.537Z,2.22
2022-11-16T05:44:39.423Z,2.40
2022-11-16T05:47:06.355Z,2.58
2022-11-16T05:49:33.790Z,2.60
2022-11-16T05:52:00.446Z,2.33
2022-11-16T05:54:28.389Z,2.33
2022-11-16T05:56:55.587Z,3.00
2022-11-16T05:59:24.195Z,4.18
2022-11-16T06:01:53.990Z,4.30
2022-11-16T06:04:24.809Z,4.82
2022-11-16T06:06:53.590Z,4.95
2022-11-16T06:09:20.385Z,4.43
2022-11-16T06:11:48.901Z,4.18
2022-11-16T06:14:15.809Z,2.88
2022-11-16T06:16:43.227Z,2.65
2022-11-16T06:19:10.806Z,3.78
2022-11-16T06:21:37.548Z,3.25
2022-11-16T06:24:10.188Z,3.80
2022-11-16T06:26:37.273Z,3.13
2022-11-16T06:29:04.752Z,2.83
2022-11-16T06:31:33.171Z,2.88
2022-11-16T06:34:01.711Z,2.83
2022-11-16T06:36:29.192Z,2.92
2022-11-16T06:38:59.973Z,2.47
2022-11-16T06:41:27.543Z,2.50
2022-11-16T06:43:54.126Z,2.13
2022-11-16T06:46:25.421Z,2.30
2022-11-16T06:48:52.805Z,2.20
2022-11-16T06:51:19.477Z,2.03
2022-11-16T06:53:46.992Z,2.05
2022-11-16T06:56:15.142Z,2.10
2022-11-16T06:58:57.201Z,2.10
2022-11-16T07:01:25.802Z,2.28
2022-11-16T07:03:57.812Z,1.88
2022-11-16T07:06:24.505Z,2.03
2022-11-16T07:08:51.090Z,2.42
2022-11-16T07:13:49.310Z,1.92
2022-11-16T07:16:16.086Z,1.52
2022-11-16T07:18:49.660Z,2.15
2022-11-16T07:21:17.305Z,1.70
2022-11-16T07:23:44.919Z,1.88
2022-11-16T07:26:16.257Z,1.83
2022-11-16T07:28:51.476Z,1.90
2022-11-16T07:31:21.185Z,2.38
2022-11-16T07:34:05.196Z,2.45
2022-11-16T07:36:41.514Z,2.67
2022-11-16T07:39:10.270Z,2.67
2022-11-16T07:41:42.537Z,2.60
2022-11-16T07:44:24.965Z,2.17
2022-11-16T07:47:04.886Z,2.22
2022-11-16T07:49:33.009Z,1.80
2022-11-16T07:52:08.472Z,1.42
2022-11-16T07:54:54.871Z,1.80
2022-11-16T07:57:24.305Z,2.00
2022-11-16T07:59:53.144Z,2.28
2022-11-16T08:02:19.726Z,1.67
2022-11-16T08:04:46.932Z,2.00
2022-11-16T08:07:14.426Z,2.45
2022-11-16T08:09:48.257Z,2.10
2022-11-16T08:12:17.132Z,1.75
2022-11-16T08:14:43.940Z,2.15
2022-11-16T08:17:12.973Z,1.80
2022-11-16T08:19:40.229Z,2.33
2022-11-16T08:22:08.778Z,2.17
2022-11-16T08:24:35.360Z,2.00
2022-11-16T08:27:01.998Z,2.03
2022-11-16T08:29:29.558Z,2.05
2022-11-16T08:31:57.360Z,2.08
2022-11-16T08:34:24.501Z,1.58
2022-11-16T08:36:55.916Z,1.85
2022-11-16T08:39:28.618Z,1.60
2022-11-16T08:41:55.220Z,1.92
2022-11-16T08:44:21.797Z,1.98
2022-11-16T08:46:52.222Z,1.98
2022-11-16T08:49:35.480Z,1.70
2022-11-16T08:52:02.114Z,2.05
2022-11-16T08:54:30.237Z,2.00
2022-11-16T08:56:57.336Z,1.42
2022-11-16T08:59:24.010Z,1.52
2022-11-16T09:01:54.069Z,1.60
2022-11-16T09:04:20.738Z,1.40
2022-11-16T09:06:47.495Z,2.05
2022-11-16T09:09:14.206Z,1.85
2022-11-16T09:11:40.853Z,1.40
2022-11-16T09:14:07.439Z,1.00
2022-11-16T09:16:33.999Z,1.40
2022-11-16T09:19:03.645Z,1.35
2022-11-16T09:21:33.447Z,2.00
2022-11-16T09:24:00.029Z,1.75
2022-11-16T09:26:27.280Z,1.45
2022-11-16T09:28:56.767Z,1.10
2022-11-16T09:31:24.517Z,1.42
2022-11-16T09:33:51.230Z,1.30
2022-11-16T09:36:17.956Z,1.13
2022-11-16T09:41:51.140Z,1.65
2022-11-16T09:44:23.827Z,2.22
2022-11-16T09:46:57.052Z,1.48
2022-11-16T09:49:33.402Z,1.92
2022-11-16T09:52:05.877Z,1.67
2022-11-16T09:54:40.224Z,1.23
2022-11-16T09:57:12.607Z,1.27
2022-11-16T09:59:49.806Z,1.27
2022-11-16T10:02:25.426Z,1.30
2022-11-16T10:05:03.062Z,1.40
2022-11-16T10:07:37.146Z,1.17
2022-11-16T10:10:04.180Z,1.25
2022-11-16T10:12:51.729Z,1.20
2022-11-16T10:15:39.762Z,1.25
2022-11-16T10:18:21.565Z,1.10
2022-11-16T10:21:03.645Z,1.40
2022-11-16T10:23:36.466Z,1.20
2022-11-16T10:26:06.295Z,1.00
2022-11-16T10:28:51.852Z,1.00
2022-11-16T10:31:48.621Z,1.00
2022-11-16T10:34:22.515Z,1.42
2022-11-16T10:36:49.079Z,0.73
2022-11-16T10:39:18.018Z,0.90
2022-11-16T10:41:49.685Z,0.85
2022-11-16T10:44:27.387Z,0.88
2022-11-16T10:47:04.430Z,1.20
2022-11-16T10:49:41.074Z,1.00
2022-11-16T10:52:07.700Z,0.88
2022-11-16T10:54:34.357Z,1.50
2022-11-16T10:57:08.780Z,1.38
2022-11-16T10:59:43.639Z,1.38
2022-11-16T11:02:48.914Z,1.13
2022-11-16T11:05:21.493Z,1.30
2022-11-16T11:07:59.871Z,0.73
2022-11-16T11:10:30.747Z,1.20
2022-11-16T11:13:12.506Z,1.10
2022-11-16T11:15:41.430Z,1.10
2022-11-16T11:18:23.211Z,1.08
2022-11-16T11:21:31.152Z,0.93
2022-11-16T11:24:16.368Z,0.82
2022-11-16T11:26:53.875Z,1.38
2022-11-16T11:29:37.998Z,1.13
2022-11-16T11:32:07.942Z,1.15
2022-11-16T11:34:47.271Z,1.13
2022-11-16T11:37:20.591Z,1.10
2022-11-16T11:40:06.467Z,1.10
2022-11-16T11:42:33.741Z,1.20
2022-11-16T11:45:06.544Z,1.10
2022-11-16T11:47:57.873Z,0.98
2022-11-16T11:50:48.046Z,1.75
2022-11-16T11:53:42.288Z,1.48
2022-11-16T11:56:12.087Z,1.23
2022-11-16T11:58:40.046Z,1.30
2022-11-16T12:01:06.554Z,1.38
2022-11-16T12:03:47.065Z,1.33
2022-11-16T12:06:28.139Z,1.27
2022-11-16T12:09:11.609Z,1.00
2022-11-16T12:11:52.451Z,1.30
2022-11-16T12:14:56.806Z,1.20
2022-11-16T12:17:38.645Z,1.05
2022-11-16T12:20:21.376Z,0.90
2022-11-16T12:23:07.359Z,1.30
2022-11-16T12:26:00.863Z,1.10
2022-11-16T12:28:33.413Z,1.25
2022-11-16T12:31:18.767Z,1.33
2022-11-16T12:34:13.916Z,0.80
2022-11-16T12:36:47.569Z,0.65
2022-11-16T12:39:24.581Z,0.98
2022-11-16T12:42:09.919Z,0.80
2022-11-16T12:45:16.264Z,0.60
2022-11-16T12:48:10.138Z,0.80
2022-11-16T12:50:48.450Z,0.80
2022-11-16T12:53:43.203Z,0.57
2022-11-16T12:56:34.873Z,0.90
2022-11-16T12:59:13.676Z,0.70
2022-11-16T13:01:47.018Z,0.50
2022-11-16T13:04:23.973Z,0.70
2022-11-16T13:07:14.802Z,0.70
2022-11-16T13:09:48.716Z,0.70
2022-11-16T13:12:19.341Z,0.70
2022-11-16T13:14:53.398Z,1.00
2022-11-16T13:17:29.128Z,0.75
2022-11-16T13:20:20.956Z,0.80
2022-11-16T13:22:58.439Z,1.00
2022-11-16T13:25:33.606Z,0.80
2022-11-16T13:28:23.444Z,1.50
2022-11-16T13:31:04.583Z,1.75
2022-11-16T13:33:52.351Z,0.70
2022-11-16T13:36:37.278Z,0.60
2022-11-16T13:39:06.179Z,0.80
2022-11-16T13:41:49.506Z,0.75
2022-11-16T13:44:20.351Z,0.98
2022-11-16T13:46:57.567Z,0.82
2022-11-16T13:49:29.625Z,1.08
2022-11-16T13:52:22.658Z,0.70
2022-11-16T13:54:56.086Z,0.50
2022-11-16T13:57:32.508Z,0.65
2022-11-16T14:00:02.145Z,1.00
2022-11-16T14:02:39.596Z,0.70
2022-11-16T14:05:12.324Z,0.63
2022-11-16T14:07:45.248Z,0.50
2022-11-16T14:10:32.415Z,0.63
2022-11-16T14:13:00.295Z,0.30
2022-11-16T14:15:26.899Z,0.30
2022-11-16T14:18:03.374Z,0.45
2022-11-16T14:20:56.807Z,0.50
2022-11-16T14:23:45.433Z,0.43
2022-11-16T14:26:27.166Z,0.50
2022-11-16T14:29:12.520Z,0.50
2022-11-16T14:31:50.080Z,0.50
2022-11-16T14:34:20.980Z,0.60
2022-11-16T14:36:49.164Z,0.47
2022-11-16T14:39:25.222Z,0.43
2022-11-16T14:41:52.602Z,0.65
2022-11-16T14:44:22.587Z,0.32
2022-11-16T14:46:49.428Z,0.50
2022-11-16T14:49:17.952Z,0.30
2022-11-16T14:51:53.729Z,0.30
2022-11-16T14:54:26.519Z,0.30
2022-11-16T14:57:00.119Z,0.43
2022-11-16T14:59:28.206Z,0.65
2022-11-16T15:01:55.183Z,0.60
2022-11-16T15:04:25.757Z,0.40
2022-11-16T15:06:58.035Z,0.73
2022-11-16T15:09:37.937Z,2.55
2022-11-16T15:12:30.369Z,2.67
2022-11-16T15:15:00.970Z,0.70
2022-11-16T15:17:32.985Z,1.57
2022-11-16T15:20:19.940Z,1.10
2022-11-16T15:22:58.063Z,0.90
2022-11-16T15:25:26.486Z,0.68
2022-11-16T15:27:54.432Z,1.15
2022-11-16T15:30:24.617Z,1.60
2022-11-16T15:32:53.048Z,1.25
2022-11-16T15:35:29.167Z,0.95
2022-11-16T15:38:04.917Z,0.90
2022-11-16T15:40:33.257Z,0.55
2022-11-16T15:43:01.820Z,1.13
2022-11-16T15:45:29.938Z,0.63
2022-11-16T15:48:00.425Z,0.90
2022-11-16T15:50:27.968Z,0.80
2022-11-16T15:52:55.693Z,0.77
2022-11-16T15:55:31.877Z,0.80
2022-11-16T15:58:06.016Z,0.80
2022-11-16T16:00:36.416Z,0.63
2022-11-16T16:05:38.215Z,0.60
2022-11-16T16:08:05.907Z,0.80
2022-11-16T16:10:33.171Z,0.80
2022-11-16T16:13:01.221Z,0.80
2022-11-16T16:15:29.766Z,0.90
2022-11-16T16:17:57.987Z,0.63
2022-11-16T16:20:27.383Z,1.00
2022-11-16T16:23:04.657Z,2.22
2022-11-16T16:25:33.335Z,1.50
2022-11-16T16:28:00.366Z,1.58
2022-11-16T16:30:29.129Z,1.33
2022-11-16T16:32:55.970Z,1.80
2022-11-16T16:35:24.696Z,3.42
2022-11-16T16:37:57.532Z,6.70
2022-11-16T16:40:24.234Z,5.38
2022-11-16T16:42:51.146Z,2.65
2022-11-16T16:45:37.139Z,2.47
2022-11-16T16:48:04.236Z,2.40
2022-11-16T16:50:31.073Z,2.80
2022-11-16T16:52:58.099Z,2.58
2022-11-16T16:55:24.692Z,2.58
2022-11-16T16:57:51.350Z,2.47
2022-11-16T17:00:18.178Z,2.75
2022-11-16T17:02:44.791Z,2.25
2022-11-16T17:05:11.391Z,2.50
2022-11-16T17:07:37.988Z,2.10
2022-11-16T17:10:05.101Z,4.18
2022-11-16T17:12:31.665Z,4.50
2022-11-16T17:14:58.339Z,3.22
2022-11-16T17:17:25.365Z,3.92
2022-11-16T17:19:52.604Z,3.28
2022-11-16T17:22:46.970Z,3.58
2022-11-16T17:25:14.900Z,3.15
2022-11-16T17:27:41.488Z,3.92
2022-11-16T17:30:08.921Z,2.25
2022-11-16T17:32:35.643Z,2.65
2022-11-16T17:35:02.203Z,2.30
2022-11-16T17:37:28.744Z,3.92
2022-11-16T17:39:55.294Z,3.17
2022-11-16T17:42:21.848Z,3.45
2022-11-16T17:44:48.454Z,3.72
2022-11-16T17:47:15.076Z,3.53
2022-11-16T17:49:41.664Z,3.67
2022-11-16T17:52:08.279Z,3.60
2022-11-16T17:54:34.947Z,4.68
2022-11-16T17:57:01.543Z,11.93
2022-11-16T17:59:29.766Z,12.90
2022-11-16T18:01:57.952Z,13.55
2022-11-16T18:04:25.265Z,10.50
2022-11-16T18:06:52.036Z,10.20
2022-11-16T18:09:18.851Z,7.55
2022-11-16T18:11:45.618Z,7.82
2022-11-16T18:14:12.256Z,5.68
2022-11-16T18:16:42.314Z,6.75
2022-11-16T18:19:11.866Z,4.57
2022-11-16T18:21:40.626Z,4.03
2022-11-16T18:24:07.901Z,4.40
2022-11-16T18:26:34.494Z,4.70
2022-11-16T18:29:01.156Z,4.00
2022-11-16T18:31:27.954Z,5.75
2022-11-16T18:33:54.928Z,4.40
2022-11-16T18:36:22.131Z,5.03
2022-11-16T18:38:49.118Z,3.75
2022-11-16T18:41:19.736Z,3.58
2022-11-16T18:43:58.565Z,3.05
2022-11-16T18:46:30.801Z,3.00
2022-11-16T18:48:57.803Z,2.75
2022-11-16T18:51:27.016Z,2.97
2022-11-16T18:53:53.872Z,3.00
2022-11-16T18:56:21.121Z,2.95
2022-11-16T18:58:52.487Z,3.40
2022-11-16T19:03:47.974Z,3.60
2022-11-16T19:06:15.652Z,2.45
2022-11-16T19:08:42.867Z,3.13
2022-11-16T19:11:11.841Z,3.03
2022-11-16T19:13:40.295Z,2.55
2022-11-16T19:16:07.995Z,3.50
2022-11-16T19:18:35.544Z,2.58
2022-11-16T19:21:12.571Z,3.13
2022-11-16T19:23:42.756Z,2.67
2022-11-16T19:26:26.147Z,3.05
2022-11-16T19:28:53.747Z,2.67
2022-11-16T19:31:26.290Z,2.92
2022-11-16T19:33:58.393Z,2.97
2022-11-16T19:36:26.777Z,3.90
2022-11-16T19:38:54.090Z,3.10
2022-11-16T19:41:22.452Z,3.75
2022-11-16T19:43:52.483Z,3.72
2022-11-16T19:46:21.456Z,3.50
2022-11-16T19:48:49.361Z,4.18
2022-11-16T19:51:19.704Z,4.15
2022-11-16T19:53:46.689Z,3.58
2022-11-16T19:56:15.831Z,3.33
2022-11-16T19:58:43.218Z,2.92
2022-11-16T20:01:30.246Z,3.22
2022-11-16T20:03:59.833Z,3.80
2022-11-16T20:06:29.023Z,3.15
2022-11-16T20:08:58.975Z,2.78
2022-11-16T20:11:27.677Z,3.55
2022-11-16T20:13:56.854Z,4.05
2022-11-16T20:16:31.601Z,4.07
2022-11-16T20:19:00.732Z,3.40
2022-11-16T20:21:33.224Z,3.50
2022-11-16T20:24:06.352Z,3.63
2022-11-16T20:26:35.221Z,3.75
2022-11-16T20:29:01.891Z,4.05
2022-11-16T20:31:30.754Z,4.07
2022-11-16T20:34:02.596Z,4.00
2022-11-16T20:36:30.874Z,5.15
2022-11-16T20:38:58.764Z,6.90
2022-11-16T20:41:28.687Z,6.00
2022-11-16T20:43:57.359Z,4.35
2022-11-16T20:46:30.011Z,4.38
2022-11-16T20:48:59.282Z,5.05
2022-11-16T20:51:26.246Z,4.13
2022-11-16T20:53:52.905Z,4.55
2022-11-16T20:56:20.468Z,5.28
2022-11-16T20:58:48.340Z,5.80
2022-11-16T21:01:18.176Z,4.22
2022-11-16T21:03:44.940Z,4.75
2022-11-16T21:06:14.651Z,4.57
2022-11-16T21:08:41.702Z,4.40
2022-11-16T21:11:23.243Z,4.93
2022-11-16T21:14:08.094Z,5.65
2022-11-16T21:16:34.946Z,5.13
2022-11-16T21:19:02.295Z,4.40
2022-11-16T21:21:29.746Z,4.78
2022-11-16T21:23:56.340Z,4.90
2022-11-16T21:26:31.254Z,5.07
2022-11-16T21:28:59.052Z,4.68
2022-11-16T21:31:27.871Z,5.00
2022-11-16T21:33:54.574Z,4.57
2022-11-16T21:36:23.660Z,4.25
2022-11-16T21:38:50.763Z,5.03
2022-11-16T21:41:18.690Z,5.10
2022-11-16T21:43:45.966Z,4.57
2022-11-16T21:46:13.758Z,4.35
2022-11-16T21:48:40.804Z,5.80
2022-11-16T21:51:10.164Z,5.00
2022-11-16T21:53:37.435Z,5.63
2022-11-16T21:56:05.584Z,5.00
2022-11-16T21:58:32.178Z,4.78
2022-11-16T22:01:01.374Z,4.63
2022-11-16T22:03:30.316Z,4.70
2022-11-16T22:06:17.816Z,3.53
2022-11-16T22:08:45.066Z,3.83
2022-11-16T22:11:12.456Z,4.00
2022-11-16T22:13:39.076Z,5.07
2022-11-16T22:16:06.247Z,4.40
2022-11-16T22:18:33.330Z,3.65
2022-11-16T22:21:01.274Z,3.83
2022-11-16T22:23:28.595Z,2.30
2022-11-16T22:25:59.891Z,2.05
2022-11-16T22:28:26.605Z,1.83
2022-11-16T22:31:05.006Z,1.38
2022-11-16T22:33:32.431Z,1.63
2022-11-16T22:35:59.291Z,1.27
2022-11-16T22:38:26.174Z,1.52
2022-11-16T22:40:54.716Z,2.13
2022-11-16T22:43:32.740Z,2.72
2022-11-16T22:46:04.528Z,1.92
2022-11-16T22:48:39.676Z,1.48
2022-11-16T22:51:20.110Z,1.95
2022-11-16T22:53:46.766Z,0.85
2022-11-16T22:56:13.515Z,1.30
2022-11-16T22:58:40.404Z,1.02
2022-11-16T23:01:08.692Z,0.88
2022-11-16T23:03:35.923Z,1.00
2022-11-16T23:06:04.152Z,1.42
2022-11-16T23:08:31.331Z,0.93
2022-11-16T23:11:22.736Z,1.27
2022-11-16T23:14:08.997Z,1.50
2022-11-16T23:16:36.021Z,1.33
2022-11-16T23:19:02.754Z,1.45
2022-11-16T23:21:47.877Z,1.52
2022-11-16T23:24:34.147Z,1.73
2022-11-16T23:27:22.525Z,0.90
2022-11-16T23:29:49.508Z,1.88
2022-11-16T23:32:16.065Z,1.40
2022-11-16T23:34:42.617Z,2.00
2022-11-16T23:37:09.183Z,1.38
2022-11-16T23:39:35.807Z,1.42
2022-11-16T23:42:21.103Z,1.67
2022-11-16T23:44:47.699Z,1.48
2022-11-16T23:47:14.292Z,1.20
2022-11-16T23:49:40.868Z,1.85
2022-11-16T23:52:07.446Z,1.40
2022-11-16T23:54:34.048Z,1.38
2022-11-16T23:57:00.745Z,1.27
2022-11-16T23:59:27.575Z,1.60
